Wetterdaten: aktuell Montag, 06.07.2020 01:15
Datum Zeit Temp. A. Feuchte A. Luftdruck Regen Wind Richtung Richtung Sonnenschein Solar Windben
06.07.2020 01:15 21,0 C 68 % 1010,5 hPa 0,0 l/m 2,0 km/h (1 Bft) S-SW 209 0 min 0 W/m 11,3 km/h (2 Bft)
06.07.2020 00:15 21,4 C 68 % 1010,5 hPa 0,0 l/m 4,2 km/h (1 Bft) S-SW 207 0 min 0 W/m 14,5 km/h (3 Bft)
05.07.2020 23:15 20,2 C 70 % 1010,9 hPa 0,0 l/m 1,5 km/h (1 Bft) W-SW 242 0 min 0 W/m 9,7 km/h (2 Bft)
05.07.2020 22:15 20,7 C 69 % 1011,3 hPa 0,0 l/m 3,2 km/h (1 Bft) S-SW 207 0 min 0 W/m 11,3 km/h (2 Bft)
05.07.2020 21:15 21,6 C 67 % 1011,4 hPa 0,0 l/m 2,6 km/h (1 Bft) S 185 0 min 0 W/m 11,3 km/h (2 Bft)
05.07.2020 20:15 22,1 C 66 % 1011,2 hPa 0,0 l/m 3,5 km/h (1 Bft) W-SW 244 0 min 6 W/m 14,5 km/h (3 Bft)
05.07.2020 19:15 23,9 C 61 % 1011,1 hPa 0,0 l/m 8,7 km/h (2 Bft) W-NW 283 45 min 64 W/m 22,5 km/h (4 Bft)
05.07.2020 18:15 25,4 C 59 % 1011,4 hPa 0,0 l/m 11,6 km/h (2 Bft) W-SW 252 60 min 235 W/m 25,7 km/h (4 Bft)
05.07.2020 17:15 26,0 C 57 % 1011,6 hPa 0,0 l/m 7,1 km/h (2 Bft) SW 215 60 min 398 W/m 24,1 km/h (4 Bft)
05.07.2020 16:15 26,1 C 57 % 1012,0 hPa 0,0 l/m 10,8 km/h (2 Bft) W-SW 258 45 min 582 W/m 30,6 km/h (5 Bft)
05.07.2020 15:15 24,9 C 60 % 1012,4 hPa 0,0 l/m 8,6 km/h (2 Bft) SW 215 15 min 318 W/m 27,4 km/h (4 Bft)
05.07.2020 14:15 25,0 C 58 % 1012,5 hPa 0,0 l/m 10,7 km/h (2 Bft) W-NW 283 0 min 333 W/m 20,9 km/h (4 Bft)
05.07.2020 13:15 26,3 C 56 % 1012,5 hPa 0,0 l/m 11,6 km/h (2 Bft) W 263 15 min 632 W/m 30,6 km/h (5 Bft)
05.07.2020 12:15 24,5 C 64 % 1012,8 hPa 0,0 l/m 4,1 km/h (1 Bft) S 190 0 min 283 W/m 12,9 km/h (3 Bft)
05.07.2020 11:15 25,3 C 59 % 1012,9 hPa 0,0 l/m 6,1 km/h (2 Bft) S-SO 168 45 min 805 W/m 17,7 km/h (3 Bft)
05.07.2020 10:15 24,1 C 61 % 1013,2 hPa 0,0 l/m 6,6 km/h (2 Bft) S-SO 157 60 min 762 W/m 17,7 km/h (3 Bft)
05.07.2020 09:15 22,7 C 64 % 1013,8 hPa 0,0 l/m 9,0 km/h (2 Bft) W-SW 238 45 min 412 W/m 24,1 km/h (4 Bft)
05.07.2020 08:15 21,8 C 64 % 1013,7 hPa 0,0 l/m 5,5 km/h (1 Bft) W-SW 253 45 min 333 W/m 19,3 km/h (3 Bft)
05.07.2020 07:15 20,8 C 66 % 1013,8 hPa 0,0 l/m 4,3 km/h (1 Bft) S-SW 212 15 min 236 W/m 16,1 km/h (3 Bft)
05.07.2020 06:15 20,3 C 65 % 1014,0 hPa 0,0 l/m 3,3 km/h (1 Bft) SW 233 15 min 184 W/m 11,3 km/h (2 Bft)
05.07.2020 05:15 19,3 C 65 % 1014,1 hPa 0,0 l/m 4,7 km/h (1 Bft) SW 227 0 min 50 W/m 14,5 km/h (3 Bft)
05.07.2020 04:15 19,6 C 62 % 1014,3 hPa 0,0 l/m 5,5 km/h (1 Bft) W-SW 242 0 min 5 W/m 12,9 km/h (3 Bft)
05.07.2020 03:15 19,6 C 60 % 1014,3 hPa 0,0 l/m 4,7 km/h (1 Bft) SW 223 0 min 0 W/m 17,7 km/h (3 Bft)
05.07.2020 02:15 19,4 C 61 % 1014,8 hPa 0,0 l/m 4,2 km/h (1 Bft) SW 234 0 min 0 W/m 12,9 km/h (3 Bft)
05.07.2020 02:00 19,4 C 60 % 1014,9 hPa 0,0 l/m 2,8 km/h (1 Bft) SW 228 0 min 0 W/m 9,7 km/h (2 Bft)
_ Min-Zeit 05:45 13:00 00:45 - 22:45 - - - - 22:45
Minimum _ 19,2 C 56 % 1010,4 hPa - 0,3 km/h (0 Bft) - - - - 6,4 km/h (2 Bft)
_ Max-Zeit 17:45 22:45 02:00 02:00 13:45 - - 06:15 11:15 14:30
Maximum _ 26,7 C 70 % 1014,9 hPa 0,0 l/m 14,8 km/h
SW (3 Bft)
- - 15 min 805 W/m 35,4 km/h
W (5 Bft)
Durchschnitt _ 22,4 C 63 % 1012,7 hPa #0,0 l/m 5,8 km/h (2 Bft) SW - #0 min. 0 W/m 17,6 km/h (3 Bft)